createdAt,value
2022-11-17T00:04:04.815Z,3.17
2022-11-17T00:08:16.301Z,2.57
2022-11-17T00:12:46.383Z,3.07
2022-11-17T00:16:58.306Z,2.77
2022-11-17T00:21:23.575Z,2.97
2022-11-17T00:25:35.170Z,2.80
2022-11-17T00:29:46.772Z,3.03
2022-11-17T00:34:07.442Z,3.10
2022-11-17T00:38:19.136Z,3.23
2022-11-17T00:42:30.686Z,2.80
2022-11-17T00:46:43.144Z,2.70
2022-11-17T00:50:55.868Z,2.73
2022-11-17T00:55:07.847Z,2.63
2022-11-17T00:59:19.467Z,2.50
2022-11-17T01:03:31.399Z,2.20
2022-11-17T01:07:43.036Z,2.23
2022-11-17T01:11:54.565Z,2.23
2022-11-17T01:16:09.618Z,2.50
2022-11-17T01:20:21.226Z,2.43
2022-11-17T01:24:32.743Z,2.37
2022-11-17T01:28:44.588Z,1.90
2022-11-17T01:32:56.112Z,2.10
2022-11-17T01:37:19.689Z,2.10
2022-11-17T01:41:31.190Z,2.03
2022-11-17T01:45:43.808Z,2.10
2022-11-17T01:50:04.012Z,1.80
2022-11-17T01:54:20.339Z,1.80
2022-11-17T01:58:36.777Z,2.33
2022-11-17T02:02:49.312Z,2.50
2022-11-17T02:07:06.469Z,2.43
2022-11-17T02:11:20.549Z,2.97
2022-11-17T02:15:32.140Z,2.30
2022-11-17T02:19:46.719Z,1.90
2022-11-17T02:24:26.107Z,1.90
2022-11-17T02:28:49.309Z,1.93
2022-11-17T02:33:07.376Z,1.50
2022-11-17T02:37:38.081Z,2.17
2022-11-17T02:41:56.461Z,1.60
2022-11-17T02:46:14.924Z,1.73
2022-11-17T02:50:28.842Z,1.63
2022-11-17T02:54:40.452Z,1.43
2022-11-17T02:58:56.425Z,1.70
2022-11-17T03:03:07.883Z,1.60
2022-11-17T03:07:54.604Z,1.50
2022-11-17T03:12:13.862Z,1.37
2022-11-17T03:16:38.400Z,1.50
2022-11-17T03:21:08.163Z,1.60
2022-11-17T03:25:23.197Z,1.90
2022-11-17T03:29:38.923Z,1.63
2022-11-17T03:33:51.656Z,1.80
2022-11-17T03:38:10.526Z,1.87
2022-11-17T03:42:27.374Z,1.77
2022-11-17T03:46:41.573Z,1.77
2022-11-17T03:51:00.161Z,1.77
2022-11-17T03:55:13.148Z,1.60
2022-11-17T03:59:29.814Z,1.80
2022-11-17T04:03:41.393Z,1.60
2022-11-17T04:07:52.920Z,1.60
2022-11-17T04:12:23.093Z,1.58
2022-11-17T04:16:34.560Z,1.63
2022-11-17T04:20:49.517Z,1.40
2022-11-17T04:25:01.056Z,1.40
2022-11-17T04:29:12.685Z,1.50
2022-11-17T04:33:24.207Z,1.70
2022-11-17T04:37:35.719Z,1.90
2022-11-17T04:42:03.155Z,1.80
2022-11-17T04:46:15.658Z,1.40
2022-11-17T04:50:27.084Z,1.60
2022-11-17T04:54:38.523Z,1.50
2022-11-17T04:58:50.710Z,1.30
2022-11-17T05:03:02.170Z,1.67
2022-11-17T05:07:13.626Z,2.07
2022-11-17T05:11:45.736Z,2.43
2022-11-17T05:16:16.373Z,2.03
2022-11-17T05:20:27.795Z,2.00
2022-11-17T05:24:39.207Z,1.77
2022-11-17T05:28:51.043Z,2.40
2022-11-17T05:33:02.512Z,1.80
2022-11-17T05:37:13.936Z,2.00
2022-11-17T05:41:26.168Z,2.10
2022-11-17T05:45:37.604Z,2.17
2022-11-17T05:49:49.055Z,1.53
2022-11-17T05:54:00.517Z,1.48
2022-11-17T05:58:26.857Z,1.77
2022-11-17T06:02:44.410Z,1.70
2022-11-17T06:06:59.242Z,2.00
2022-11-17T06:11:10.893Z,2.40
2022-11-17T06:15:22.358Z,1.87
2022-11-17T06:19:41.099Z,2.03
2022-11-17T06:23:52.609Z,1.73
2022-11-17T06:28:10.282Z,1.90
2022-11-17T06:32:22.221Z,2.03
2022-11-17T06:36:33.717Z,1.90
2022-11-17T06:40:45.164Z,2.03
2022-11-17T06:44:56.615Z,2.20
2022-11-17T06:49:08.511Z,2.00
2022-11-17T06:53:22.896Z,1.53
2022-11-17T06:57:34.394Z,1.60
2022-11-17T07:01:45.932Z,1.75
2022-11-17T07:06:00.797Z,1.70
2022-11-17T07:10:12.299Z,1.67
2022-11-17T07:14:23.835Z,2.10
2022-11-17T07:18:36.961Z,1.70
2022-11-17T07:22:49.805Z,1.57
2022-11-17T07:27:01.375Z,1.37
2022-11-17T07:31:12.934Z,1.93
2022-11-17T07:35:24.734Z,1.73
2022-11-17T07:39:36.251Z,1.80
2022-11-17T07:43:47.773Z,1.70
2022-11-17T07:48:01.375Z,1.70
2022-11-17T07:52:12.939Z,1.37
2022-11-17T07:56:24.515Z,1.70
2022-11-17T08:00:40.139Z,1.70
2022-11-17T08:04:51.779Z,2.03
2022-11-17T08:09:03.337Z,1.70
2022-11-17T08:13:15.821Z,2.03
2022-11-17T08:17:29.304Z,1.80
2022-11-17T08:21:41.462Z,1.93
2022-11-17T08:25:52.976Z,1.65
2022-11-17T08:30:05.008Z,1.70
2022-11-17T08:34:16.559Z,1.50
2022-11-17T08:38:30.921Z,1.38
2022-11-17T08:42:42.633Z,1.23
2022-11-17T08:46:54.186Z,1.20
2022-11-17T08:51:07.596Z,4.77
2022-11-17T08:55:19.383Z,2.47
2022-11-17T08:59:30.917Z,2.10
2022-11-17T09:03:44.619Z,1.13
2022-11-17T09:08:05.976Z,1.30
2022-11-17T09:12:27.656Z,1.20
2022-11-17T09:16:39.415Z,1.13
2022-11-17T09:20:50.930Z,1.03
2022-11-17T09:25:02.457Z,1.10
2022-11-17T09:29:14.203Z,0.90
2022-11-17T09:33:25.819Z,1.07
2022-11-17T09:37:37.265Z,1.33
2022-11-17T09:41:51.404Z,1.60
2022-11-17T09:46:15.217Z,1.67
2022-11-17T09:50:38.464Z,1.53
2022-11-17T09:55:02.334Z,1.47
2022-11-17T09:59:18.157Z,1.30
2022-11-17T10:03:40.107Z,1.23
2022-11-17T10:08:03.478Z,1.57
2022-11-17T10:12:20.661Z,1.00
2022-11-17T10:16:32.188Z,0.87
2022-11-17T10:20:44.978Z,1.20
2022-11-17T10:24:58.590Z,1.43
2022-11-17T10:29:14.561Z,1.00
2022-11-17T10:33:52.954Z,1.20
2022-11-17T10:38:20.142Z,1.70
2022-11-17T10:42:31.685Z,1.13
2022-11-17T10:47:02.052Z,1.27
2022-11-17T10:51:19.233Z,0.80
2022-11-17T10:55:34.010Z,1.37
2022-11-17T10:59:56.205Z,1.20
2022-11-17T11:04:29.148Z,1.60
2022-11-17T11:08:47.115Z,1.50
2022-11-17T11:13:12.782Z,1.70
2022-11-17T11:17:27.916Z,1.40
2022-11-17T11:22:06.777Z,1.03
2022-11-17T11:26:43.061Z,1.00
2022-11-17T11:31:23.009Z,0.95
2022-11-17T11:35:53.311Z,1.33
2022-11-17T11:40:35.846Z,1.35
2022-11-17T11:45:25.089Z,0.90
2022-11-17T11:49:40.391Z,1.00
2022-11-17T11:53:58.712Z,1.07
2022-11-17T11:58:24.375Z,1.10
2022-11-17T12:03:05.002Z,1.15
2022-11-17T12:07:34.853Z,1.30
2022-11-17T12:12:00.298Z,1.00
2022-11-17T12:16:35.229Z,1.00
2022-11-17T12:20:52.847Z,1.30
2022-11-17T12:25:16.087Z,0.77
2022-11-17T12:29:30.615Z,0.88
2022-11-17T12:34:11.181Z,1.02
2022-11-17T12:38:22.990Z,1.17
2022-11-17T12:42:36.219Z,0.98
2022-11-17T12:46:50.700Z,0.80
2022-11-17T12:51:33.062Z,1.48
2022-11-17T12:55:56.524Z,1.10
2022-11-17T13:00:22.347Z,1.10
2022-11-17T13:04:49.319Z,0.88
2022-11-17T13:09:12.238Z,0.90
2022-11-17T13:13:24.697Z,0.87
2022-11-17T13:17:42.583Z,0.90
2022-11-17T13:22:11.122Z,1.00
2022-11-17T13:26:25.920Z,1.20
2022-11-17T13:30:38.041Z,0.95
2022-11-17T13:34:50.683Z,0.90
2022-11-17T13:39:03.010Z,0.80
2022-11-17T13:43:18.254Z,1.00
2022-11-17T13:48:29.691Z,0.90
2022-11-17T13:58:03.440Z,0.70
2022-11-17T14:02:14.910Z,1.17
2022-11-17T14:06:26.664Z,1.10
2022-11-17T14:10:39.193Z,1.35
2022-11-17T14:14:50.756Z,1.20
2022-11-17T14:19:05.302Z,1.10
2022-11-17T14:23:18.253Z,1.20
2022-11-17T14:27:29.872Z,1.75
2022-11-17T14:31:41.580Z,0.93
2022-11-17T14:35:59.149Z,1.40
2022-11-17T14:40:17.795Z,1.00
2022-11-17T14:44:29.389Z,1.00
2022-11-17T14:48:40.858Z,1.17
2022-11-17T14:52:52.447Z,1.00
2022-11-17T14:57:04.242Z,1.10
2022-11-17T15:01:25.209Z,1.33
2022-11-17T15:05:36.944Z,1.27
2022-11-17T15:09:48.500Z,2.10
2022-11-17T15:14:05.146Z,1.65
2022-11-17T15:18:16.954Z,3.17
2022-11-17T15:22:28.550Z,1.30
2022-11-17T15:26:40.197Z,1.80
2022-11-17T15:30:52.297Z,1.70
2022-11-17T15:35:03.992Z,1.30
2022-11-17T15:39:16.548Z,1.57
2022-11-17T15:43:30.355Z,1.33
2022-11-17T15:47:42.583Z,2.40
2022-11-17T15:51:54.561Z,3.40
2022-11-17T15:56:14.282Z,4.28
2022-11-17T16:00:26.121Z,1.40
2022-11-17T16:04:37.739Z,1.10
2022-11-17T16:08:49.483Z,1.25
2022-11-17T16:13:01.143Z,1.50
2022-11-17T16:17:12.783Z,1.30
2022-11-17T16:21:24.459Z,1.37
2022-11-17T16:25:44.111Z,1.77
2022-11-17T16:29:55.673Z,1.77
2022-11-17T16:34:12.534Z,1.20
2022-11-17T16:38:24.095Z,1.38
2022-11-17T16:42:35.652Z,1.60
2022-11-17T16:46:49.832Z,1.30
2022-11-17T16:51:07.974Z,1.40
2022-11-17T16:55:19.632Z,0.87
2022-11-17T16:59:31.255Z,1.00
2022-11-17T17:03:43.106Z,1.60
2022-11-17T17:07:54.801Z,1.40
2022-11-17T17:12:06.497Z,1.80
2022-11-17T17:16:19.520Z,1.63
2022-11-17T17:20:31.275Z,1.80
2022-11-17T17:24:42.910Z,1.23
2022-11-17T17:28:56.421Z,1.30
2022-11-17T17:33:07.921Z,0.90
2022-11-17T17:37:20.081Z,1.47
2022-11-17T17:41:34.337Z,2.00
2022-11-17T17:45:45.958Z,1.40
2022-11-17T17:49:57.598Z,2.07
2022-11-17T17:54:15.603Z,1.27
2022-11-17T17:58:31.235Z,1.77
2022-11-17T18:02:42.805Z,3.10
2022-11-17T18:06:55.725Z,1.80
2022-11-17T18:11:12.235Z,1.53
2022-11-17T18:15:23.793Z,1.83
2022-11-17T18:19:35.407Z,2.40
2022-11-17T18:23:47.001Z,1.73
2022-11-17T18:27:58.538Z,1.83
2022-11-17T18:32:10.071Z,1.37
2022-11-17T18:36:22.238Z,1.10
2022-11-17T18:40:33.850Z,1.20
2022-11-17T18:44:45.431Z,1.30
2022-11-17T18:48:57.989Z,1.53
2022-11-17T18:53:10.217Z,1.53
2022-11-17T18:57:22.466Z,2.30
2022-11-17T19:01:34.179Z,1.97
2022-11-17T19:05:45.846Z,2.57
2022-11-17T19:09:57.476Z,1.83
2022-11-17T19:14:09.210Z,2.70
2022-11-17T19:18:21.246Z,2.50
2022-11-17T19:22:33.180Z,1.80
2022-11-17T19:26:45.710Z,1.60
2022-11-17T19:31:02.162Z,3.73
2022-11-17T19:35:18.328Z,4.63
2022-11-17T19:39:32.930Z,4.63
2022-11-17T19:43:45.771Z,4.53
2022-11-17T19:47:59.026Z,4.60
2022-11-17T19:52:10.588Z,3.80
2022-11-17T19:56:24.222Z,3.40
2022-11-17T20:00:35.776Z,2.10
2022-11-17T20:04:47.378Z,2.60
2022-11-17T20:08:59.105Z,3.27
2022-11-17T20:13:10.729Z,1.80
2022-11-17T20:17:22.315Z,2.65
2022-11-17T20:21:34.859Z,2.27
2022-11-17T20:25:46.586Z,3.07
2022-11-17T20:29:58.372Z,2.43
2022-11-17T20:34:12.168Z,1.90
2022-11-17T20:38:23.754Z,3.47
2022-11-17T20:42:35.330Z,1.90
2022-11-17T20:46:46.860Z,2.07
2022-11-17T20:51:04.962Z,1.83
2022-11-17T20:55:16.531Z,1.23
2022-11-17T20:59:28.149Z,1.50
2022-11-17T21:03:40.163Z,1.70
2022-11-17T21:07:51.799Z,1.80
2022-11-17T21:12:03.383Z,1.87
2022-11-17T21:16:15.275Z,2.23
2022-11-17T21:20:29.596Z,1.63
2022-11-17T21:24:41.081Z,2.13
2022-11-17T21:28:52.597Z,2.03
2022-11-17T21:33:04.034Z,1.77
2022-11-17T21:37:15.480Z,1.80
2022-11-17T21:41:29.497Z,1.70
2022-11-17T21:45:40.938Z,2.00
2022-11-17T21:49:52.433Z,2.00
2022-11-17T21:54:07.732Z,2.07
2022-11-17T21:58:19.200Z,1.90
2022-11-17T22:02:30.712Z,1.80
2022-11-17T22:06:42.668Z,2.50
2022-11-17T22:10:54.129Z,1.97
2022-11-17T22:15:11.345Z,1.70
2022-11-17T22:19:26.416Z,2.30
2022-11-17T22:23:37.929Z,1.93
2022-11-17T22:27:49.405Z,2.20
2022-11-17T22:32:00.840Z,2.13
2022-11-17T22:36:12.773Z,2.00
2022-11-17T22:40:24.250Z,2.23
2022-11-17T22:44:35.794Z,1.93
2022-11-17T22:48:47.439Z,2.37
2022-11-17T22:52:59.710Z,2.00
2022-11-17T22:57:11.394Z,2.27
2022-11-17T23:01:22.876Z,2.20
2022-11-17T23:05:34.464Z,2.00
2022-11-17T23:09:45.921Z,2.20
2022-11-17T23:13:57.373Z,1.73
2022-11-17T23:18:08.906Z,2.40
2022-11-17T23:22:20.504Z,2.20
2022-11-17T23:26:32.084Z,3.30
2022-11-17T23:30:43.599Z,2.93
2022-11-17T23:34:56.017Z,2.40
2022-11-17T23:39:07.599Z,2.20
2022-11-17T23:43:19.049Z,2.10
2022-11-17T23:47:30.553Z,2.40
2022-11-17T23:51:42.698Z,1.83
2022-11-17T23:55:56.089Z,2.10
